createdAt,value
2022-11-05T00:04:06.673Z,7.90
2022-11-05T00:08:26.882Z,7.90
2022-11-05T00:12:47.141Z,7.90
2022-11-05T00:16:51.213Z,7.90
2022-11-05T00:20:54.004Z,8.00
2022-11-05T00:25:14.208Z,8.10
2022-11-05T00:29:16.925Z,8.10
2022-11-05T00:33:21.114Z,7.90
2022-11-05T00:37:23.839Z,7.90
2022-11-05T00:41:26.596Z,7.90
2022-11-05T00:45:29.252Z,7.90
2022-11-05T00:49:33.310Z,7.90
2022-11-05T00:53:36.660Z,7.90
2022-11-05T00:57:39.409Z,8.10
2022-11-05T01:01:42.214Z,8.20
2022-11-05T01:05:48.602Z,8.00
2022-11-05T01:09:51.313Z,8.10
2022-11-05T01:13:54.066Z,8.10
2022-11-05T01:17:56.897Z,8.00
2022-11-05T01:22:00.933Z,8.00
2022-11-05T01:26:03.624Z,8.00
2022-11-05T01:30:08.941Z,8.00
2022-11-05T01:34:11.653Z,8.10
2022-11-05T01:38:15.734Z,8.20
2022-11-05T01:42:22.374Z,8.00
2022-11-05T01:46:29.794Z,8.20
2022-11-05T01:50:37.298Z,8.10
2022-11-05T01:54:41.681Z,8.10
2022-11-05T01:58:49.654Z,8.00
2022-11-05T02:02:52.564Z,8.10
2022-11-05T02:06:55.836Z,7.90
2022-11-05T02:11:00.132Z,8.00
2022-11-05T02:15:02.970Z,8.00
2022-11-05T02:19:22.773Z,7.90
2022-11-05T02:23:54.646Z,8.00
2022-11-05T02:28:25.965Z,8.10
2022-11-05T02:32:48.925Z,8.00
2022-11-05T02:36:59.264Z,7.90
2022-11-05T02:41:07.809Z,8.00
2022-11-05T02:45:19.470Z,7.90
2022-11-05T02:49:33.260Z,7.90
2022-11-05T02:53:42.685Z,7.90
2022-11-05T02:57:47.628Z,7.90
2022-11-05T03:01:52.218Z,7.80
2022-11-05T03:06:23.812Z,7.80
2022-11-05T03:10:42.709Z,7.90
2022-11-05T03:14:53.760Z,7.90
2022-11-05T03:19:02.510Z,8.00
2022-11-05T03:23:13.432Z,8.00
2022-11-05T03:27:20.634Z,8.00
2022-11-05T03:31:24.303Z,8.00
2022-11-05T03:35:30.333Z,8.10
2022-11-05T03:39:38.934Z,8.10
2022-11-05T03:43:45.549Z,8.20
2022-11-05T03:47:51.458Z,8.20
2022-11-05T03:51:59.872Z,8.20
2022-11-05T03:56:07.519Z,8.20
2022-11-05T04:00:11.852Z,8.20
2022-11-05T04:04:14.669Z,8.20
2022-11-05T04:08:34.766Z,8.30
2022-11-05T04:12:56.356Z,8.30
2022-11-05T04:17:09.398Z,8.30
2022-11-05T04:21:29.753Z,8.30
2022-11-05T04:25:32.556Z,8.30
2022-11-05T04:29:54.180Z,8.30
2022-11-05T04:33:56.864Z,8.30
2022-11-05T04:37:59.638Z,8.40
2022-11-05T04:42:02.355Z,8.40
2022-11-05T04:46:06.703Z,8.40
2022-11-05T04:50:10.619Z,8.40
2022-11-05T04:54:13.433Z,8.30
2022-11-05T04:58:16.148Z,8.40
2022-11-05T05:02:20.313Z,8.30
2022-11-05T05:06:23.400Z,8.30
2022-11-05T05:10:26.084Z,8.40
2022-11-05T05:14:28.819Z,8.40
2022-11-05T05:18:32.952Z,8.40
2022-11-05T05:22:35.779Z,8.40
2022-11-05T05:26:39.910Z,8.50
2022-11-05T05:30:42.597Z,8.40
2022-11-05T05:34:46.616Z,8.40
2022-11-05T05:38:49.405Z,8.40
2022-11-05T05:42:54.809Z,8.40
2022-11-05T05:46:57.572Z,8.50
2022-11-05T05:51:06.794Z,8.40
2022-11-05T05:55:12.550Z,8.40
2022-11-05T05:59:15.421Z,8.40
2022-11-05T06:03:18.156Z,8.40
2022-11-05T06:07:22.205Z,8.40
2022-11-05T06:11:24.941Z,8.40
2022-11-05T06:15:33.096Z,8.40
2022-11-05T06:19:38.315Z,8.40
2022-11-05T06:23:43.782Z,8.40
2022-11-05T06:27:46.460Z,8.50
2022-11-05T06:31:49.202Z,8.40
2022-11-05T06:35:52.162Z,8.40
2022-11-05T06:39:57.165Z,8.40
2022-11-05T06:44:00.019Z,8.40
2022-11-05T06:48:02.988Z,8.50
2022-11-05T06:52:05.750Z,8.50
2022-11-05T06:56:10.210Z,8.50
2022-11-05T07:00:14.856Z,8.50
2022-11-05T07:04:17.685Z,8.60
2022-11-05T07:08:20.413Z,8.50
2022-11-05T07:12:24.450Z,8.60
2022-11-05T07:16:27.187Z,8.60
2022-11-05T07:20:34.003Z,8.70
2022-11-05T07:24:37.244Z,8.70
2022-11-05T07:28:41.361Z,8.70
2022-11-05T07:32:44.081Z,8.80
2022-11-05T07:36:46.838Z,8.80
2022-11-05T07:40:49.619Z,8.80
2022-11-05T07:44:53.708Z,8.90
2022-11-05T07:48:56.433Z,8.90
2022-11-05T07:53:02.762Z,9.00
2022-11-05T07:57:05.603Z,9.10
2022-11-05T08:01:09.838Z,9.20
2022-11-05T08:05:13.811Z,9.20
2022-11-05T08:09:16.556Z,9.20
2022-11-05T08:13:19.494Z,9.30
2022-11-05T08:17:23.638Z,9.30
2022-11-05T08:21:26.369Z,9.30
2022-11-05T08:25:29.113Z,9.30
2022-11-05T08:29:31.861Z,9.30
2022-11-05T08:33:36.053Z,9.30
2022-11-05T08:37:39.358Z,9.30
2022-11-05T08:41:42.082Z,9.30
2022-11-05T08:45:44.760Z,9.30
2022-11-05T08:49:48.873Z,9.30
2022-11-05T08:53:51.608Z,9.20
2022-11-05T08:57:57.303Z,9.20
2022-11-05T09:02:00.201Z,9.30
2022-11-05T09:06:04.790Z,9.20
2022-11-05T09:10:08.081Z,9.20
2022-11-05T09:14:10.845Z,9.20
2022-11-05T09:18:14.959Z,9.20
2022-11-05T09:22:19.073Z,9.20
2022-11-05T09:26:21.965Z,9.30
2022-11-05T09:30:24.643Z,9.40
2022-11-05T09:34:27.699Z,9.30
2022-11-05T09:38:32.778Z,9.30
2022-11-05T09:42:40.504Z,9.30
2022-11-05T09:46:46.477Z,9.10
2022-11-05T09:50:49.685Z,9.20
2022-11-05T09:54:55.468Z,9.20
2022-11-05T09:59:02.643Z,9.20
2022-11-05T10:03:09.172Z,9.20
2022-11-05T10:07:16.312Z,9.30
2022-11-05T10:11:25.967Z,9.30
2022-11-05T10:15:32.009Z,9.30
2022-11-05T10:19:42.509Z,9.40
2022-11-05T10:23:45.939Z,9.50
2022-11-05T10:27:53.164Z,9.60
2022-11-05T10:31:57.109Z,9.70
2022-11-05T10:36:04.564Z,9.90
2022-11-05T10:40:17.038Z,10.10
2022-11-05T10:44:33.545Z,10.40
2022-11-05T10:48:52.017Z,10.90
2022-11-05T10:52:59.769Z,11.00
2022-11-05T10:57:27.679Z,11.00
2022-11-05T11:01:33.355Z,11.10
2022-11-05T11:05:39.100Z,11.50
2022-11-05T11:09:49.279Z,11.50
2022-11-05T11:13:59.459Z,11.30
2022-11-05T11:18:26.829Z,11.00
2022-11-05T11:22:29.522Z,10.80
2022-11-05T11:26:34.840Z,10.60
2022-11-05T11:30:37.591Z,10.60
2022-11-05T11:34:43.062Z,10.60
2022-11-05T11:38:46.550Z,10.50
2022-11-05T11:42:58.399Z,10.60
2022-11-05T11:47:06.135Z,10.80
2022-11-05T11:51:30.033Z,11.10
2022-11-05T11:55:32.853Z,11.10
2022-11-05T12:00:06.769Z,11.10
2022-11-05T12:04:03.994Z,11.10
2022-11-05T12:08:29.189Z,11.00
2022-11-05T12:12:40.546Z,10.80
2022-11-05T12:17:21.992Z,10.90
2022-11-05T12:21:51.841Z,11.00
2022-11-05T12:26:05.029Z,11.10
2022-11-05T12:30:13.340Z,11.20
2022-11-05T12:34:32.161Z,11.10
2022-11-05T12:39:02.529Z,11.10
2022-11-05T12:43:16.611Z,11.00
2022-11-05T12:47:43.651Z,11.00
2022-11-05T12:52:02.108Z,11.00
2022-11-05T12:56:24.326Z,11.00
2022-11-05T13:00:30.145Z,11.00
2022-11-05T13:04:41.100Z,11.00
2022-11-05T13:08:47.585Z,11.00
2022-11-05T13:12:53.765Z,10.90
2022-11-05T13:17:01.096Z,10.90
2022-11-05T13:21:08.326Z,11.00
2022-11-05T13:25:18.012Z,10.90
2022-11-05T13:29:26.557Z,10.80
2022-11-05T13:33:34.439Z,10.80
2022-11-05T13:38:03.795Z,10.70
2022-11-05T13:42:40.707Z,10.70
2022-11-05T13:46:59.205Z,10.70
2022-11-05T13:51:27.607Z,10.60
2022-11-05T13:55:43.597Z,10.60
2022-11-05T14:00:11.395Z,10.60
2022-11-05T14:04:28.543Z,10.50
2022-11-05T14:08:38.950Z,10.50
2022-11-05T14:12:42.572Z,10.60
2022-11-05T14:16:52.313Z,10.70
2022-11-05T14:21:00.123Z,10.70
2022-11-05T14:25:49.721Z,10.80
2022-11-05T14:29:52.504Z,10.80
2022-11-05T14:34:01.597Z,10.80
2022-11-05T14:38:06.297Z,10.80
2022-11-05T14:42:17.634Z,10.80
2022-11-05T14:46:21.740Z,10.80
2022-11-05T14:50:31.958Z,10.80
2022-11-05T14:54:41.222Z,10.70
2022-11-05T14:58:46.327Z,10.80
2022-11-05T15:02:58.633Z,10.80
2022-11-05T15:07:30.481Z,10.70
2022-11-05T15:11:38.690Z,10.60
2022-11-05T15:15:49.021Z,10.50
2022-11-05T15:19:53.139Z,10.50
2022-11-05T15:23:57.733Z,10.60
2022-11-05T15:28:06.329Z,10.50
2022-11-05T15:32:16.848Z,10.50
2022-11-05T15:36:24.870Z,10.50
2022-11-05T15:40:29.471Z,10.40
2022-11-05T15:44:34.687Z,10.40
2022-11-05T15:48:38.809Z,10.40
2022-11-05T15:52:49.496Z,10.40
2022-11-05T15:56:55.693Z,10.40
2022-11-05T16:00:58.565Z,10.30
2022-11-05T16:05:06.727Z,10.20
2022-11-05T16:09:22.210Z,10.30
2022-11-05T16:13:33.127Z,10.20
2022-11-05T16:17:47.864Z,10.20
2022-11-05T16:21:55.653Z,10.10
2022-11-05T16:25:58.590Z,10.10
2022-11-05T16:30:01.301Z,10.10
2022-11-05T16:34:04.173Z,10.10
2022-11-05T16:38:10.221Z,10.10
2022-11-05T16:42:38.635Z,10.10
2022-11-05T16:46:43.937Z,10.10
2022-11-05T16:50:47.282Z,10.10
2022-11-05T16:54:51.348Z,10.10
2022-11-05T16:58:54.069Z,10.00
2022-11-05T17:02:57.114Z,10.00
2022-11-05T17:06:59.980Z,10.00
2022-11-05T17:11:04.216Z,10.00
2022-11-05T17:15:17.764Z,10.00
2022-11-05T17:19:20.493Z,10.00
2022-11-05T17:23:26.598Z,10.00
2022-11-05T17:27:30.650Z,9.90
2022-11-05T17:31:33.402Z,9.90
2022-11-05T17:35:38.928Z,10.00
2022-11-05T17:39:41.629Z,9.90
2022-11-05T17:43:46.366Z,10.00
2022-11-05T17:47:49.132Z,10.00
2022-11-05T17:51:51.898Z,10.10
2022-11-05T17:55:54.774Z,10.10
2022-11-05T17:59:58.845Z,10.00
2022-11-05T18:04:08.206Z,10.00
2022-11-05T18:08:12.466Z,10.00
2022-11-05T18:12:15.249Z,9.90
2022-11-05T18:16:19.334Z,9.90
2022-11-05T18:20:22.154Z,9.90
2022-11-05T18:24:24.969Z,9.90
2022-11-05T18:28:29.885Z,9.80
2022-11-05T18:32:34.227Z,9.90
2022-11-05T18:36:37.091Z,9.80
2022-11-05T18:40:40.083Z,9.90
2022-11-05T18:44:42.891Z,9.80
2022-11-05T18:48:47.184Z,9.70
2022-11-05T18:52:49.907Z,9.80
2022-11-05T18:56:52.577Z,9.80
2022-11-05T19:00:55.284Z,9.60
2022-11-05T19:05:28.427Z,9.60
2022-11-05T19:09:22.089Z,9.50
2022-11-05T19:13:24.778Z,9.40
2022-11-05T19:17:27.535Z,9.30
2022-11-05T19:21:31.614Z,9.20
2022-11-05T19:25:34.748Z,9.20
2022-11-05T19:29:37.501Z,9.20
2022-11-05T19:33:40.213Z,9.20
2022-11-05T19:37:44.404Z,9.10
2022-11-05T19:41:47.771Z,9.20
2022-11-05T19:45:50.481Z,9.20
2022-11-05T19:49:53.206Z,9.10
2022-11-05T19:53:57.576Z,9.30
2022-11-05T19:58:00.275Z,9.20
2022-11-05T20:02:03.189Z,9.10
2022-11-05T20:06:08.717Z,9.10
2022-11-05T20:10:12.785Z,9.10
2022-11-05T20:14:15.547Z,9.10
2022-11-05T20:18:18.346Z,9.20
2022-11-05T20:22:21.090Z,9.10
2022-11-05T20:26:25.350Z,9.00
2022-11-05T20:30:28.093Z,9.10
2022-11-05T20:34:31.641Z,9.10
2022-11-05T20:38:35.064Z,9.10
2022-11-05T20:42:39.185Z,9.10
2022-11-05T20:46:42.186Z,9.10
2022-11-05T20:50:46.081Z,9.10
2022-11-05T20:54:49.136Z,9.00
2022-11-05T20:58:53.921Z,9.00
2022-11-05T21:02:56.768Z,9.00
2022-11-05T21:06:59.675Z,8.90
2022-11-05T21:11:02.987Z,8.90
2022-11-05T21:15:08.983Z,8.90
2022-11-05T21:19:11.717Z,8.80
2022-11-05T21:23:15.530Z,8.80
2022-11-05T21:27:18.243Z,8.80
2022-11-05T21:31:22.358Z,8.80
2022-11-05T21:35:25.082Z,8.70
2022-11-05T21:39:28.922Z,8.70
2022-11-05T21:43:31.915Z,8.70
2022-11-05T21:47:36.121Z,8.70
2022-11-05T21:51:56.316Z,8.60
2022-11-05T21:56:16.382Z,8.60
2022-11-05T22:00:19.532Z,8.50
2022-11-05T22:04:23.602Z,8.40
2022-11-05T22:08:27.183Z,8.40
2022-11-05T22:12:31.815Z,8.30
2022-11-05T22:16:34.544Z,8.30
2022-11-05T22:20:40.054Z,8.20
2022-11-05T22:24:43.177Z,8.10
2022-11-05T22:28:45.975Z,7.90
2022-11-05T22:32:48.693Z,7.70
2022-11-05T22:36:53.393Z,7.70
2022-11-05T22:40:56.105Z,7.70
2022-11-05T22:44:59.208Z,7.70
2022-11-05T22:49:01.932Z,7.70
2022-11-05T22:53:06.119Z,7.70
2022-11-05T22:57:08.884Z,7.70
2022-11-05T23:01:12.798Z,7.70
2022-11-05T23:05:16.049Z,7.60
2022-11-05T23:09:38.970Z,7.60
2022-11-05T23:13:41.714Z,7.60
2022-11-05T23:18:02.109Z,7.60
2022-11-05T23:22:22.929Z,7.50
2022-11-05T23:26:44.427Z,7.30
2022-11-05T23:31:01.052Z,7.30
2022-11-05T23:35:04.342Z,7.30
2022-11-05T23:39:06.062Z,7.30
2022-11-05T23:43:29.117Z,7.30
2022-11-05T23:47:49.437Z,7.30
2022-11-05T23:51:52.172Z,7.30
2022-11-05T23:55:58.985Z,7.20
